Time;durP1;ratioP1;P1;durP2;ratioP2;P2;SDS_P1;SDS_P2;PMS_P1;PMS_P2;Temp;Humidity;BMP_temperature;BMP_pressure;BME280_temperature;BME280_humidity;BME280_pressure;Samples;Min_cycle;Max_cycle;Signal;HPM_P1;HPM_P2
2021/12/29 00:01:55;;;;;;;33.08;21.23;;;;;;;8.05;77.43;98897.25;4992756;28;20508;-86
2021/12/29 00:04:21;;;;;;;37.75;18.58;;;;;;;8.49;77.73;98970.22;4992898;28;20101;-87
2021/12/29 00:06:46;;;;;;;35.78;19.40;;;;;;;8.68;77.68;98995.22;4992782;28;20018;-86
2021/12/29 00:09:12;;;;;;;28.35;17.42;;;;;;;8.06;77.95;98903.31;4991383;28;20030;-86
2021/12/29 00:11:40;;;;;;;36.47;18.88;;;;;;;7.74;77.99;98855.28;4992627;28;20033;-86
2021/12/29 00:14:07;;;;;;;41.00;20.67;;;;;;;8.28;77.84;98944.56;4992793;28;20021;-86
2021/12/29 00:16:35;;;;;;;42.88;20.85;;;;;;;8.65;78.09;99001.66;4992584;28;20165;-86
2021/12/29 00:19:02;;;;;;;48.85;21.98;;;;;;;7.90;78.01;98893.75;4991209;28;20026;-87
2021/12/29 00:21:27;;;;;;;42.22;20.75;;;;;;;7.86;77.64;98906.44;4992432;28;20121;-86
2021/12/29 00:23:58;;;;;;;45.40;21.17;;;;;;;7.61;77.95;98848.00;4992393;28;20529;-80
2021/12/29 00:26:25;;;;;;;42.97;20.70;;;;;;;7.80;77.83;98880.03;4992650;28;20030;-80
2021/12/29 00:28:50;;;;;;;47.80;21.65;;;;;;;7.30;77.97;98806.00;4992539;28;20503;-81
2021/12/29 00:31:16;;;;;;;60.08;24.13;;;;;;;7.84;77.96;98889.22;4992420;28;20038;-81
2021/12/29 00:33:41;;;;;;;81.68;27.73;;;;;;;7.87;78.07;98892.31;4992436;28;20034;-81
2021/12/29 00:36:06;;;;;;;92.78;29.58;;;;;;;8.51;78.19;98986.66;4992366;28;20026;-81
2021/12/29 00:38:32;;;;;;;120.57;34.90;;;;;;;8.65;78.20;99038.50;4991886;28;20022;-79
2021/12/29 00:40:57;;;;;;;118.93;36.70;;;;;;;8.42;77.71;98972.75;4992294;28;20030;-81
2021/12/29 00:43:23;;;;;;;124.30;35.72;;;;;;;8.03;77.82;98907.13;4992332;28;20023;-80
2021/12/29 00:45:50;;;;;;;113.85;34.72;;;;;;;8.45;78.11;98984.72;4992255;28;20113;-82
2021/12/29 00:48:17;;;;;;;68.68;29.27;;;;;;;8.52;78.12;99017.22;4992287;28;20513;-80
2021/12/29 00:50:43;;;;;;;82.03;32.55;;;;;;;8.51;78.16;99020.84;4992136;28;20106;-80
2021/12/29 00:53:08;;;;;;;151.98;29.95;;;;;;;8.28;78.47;98992.72;4992147;28;20097;-79
2021/12/29 00:55:35;;;;;;;77.97;26.80;;;;;;;8.43;78.35;99016.47;4991872;28;20101;-81
2021/12/29 00:58:01;;;;;;;75.00;29.58;;;;;;;8.25;78.63;98993.09;4992164;28;20150;-79
2021/12/29 01:00:28;;;;;;;60.50;27.27;;;;;;;8.14;78.36;98975.06;4991770;28;20023;-81
2021/12/29 01:02:54;;;;;;;61.08;25.40;;;;;;;7.80;78.67;98922.09;4990358;28;20466;-80
2021/12/29 01:05:20;;;;;;;60.00;24.50;;;;;;;7.39;78.23;98854.03;4991759;28;20028;-81
2021/12/29 01:07:47;;;;;;;44.20;21.40;;;;;;;7.27;78.61;98835.25;4991619;28;20027;-81
2021/12/29 01:10:14;;;;;;;66.72;25.52;;;;;;;8.30;78.46;99005.69;4991682;28;20616;-82
2021/12/29 01:12:46;;;;;;;51.80;24.20;;;;;;;8.13;78.16;98986.56;4991823;28;20029;-79
2021/12/29 01:15:14;;;;;;;;;;;;;;;8.31;79.31;99028.38;4992407;28;20022;-81
2021/12/29 01:17:40;;;;;;;69.80;26.45;;;;;;;8.30;78.49;99003.06;4992039;28;19910;-80
2021/12/29 01:20:06;;;;;;;51.95;23.50;;;;;;;8.00;78.82;98949.53;4990522;28;20109;-80
2021/12/29 01:22:31;;;;;;;90.45;30.00;;;;;;;8.42;78.16;99008.75;4991576;28;20031;-81
2021/12/29 01:24:56;;;;;;;93.70;31.83;;;;;;;8.03;78.41;98940.47;4991586;28;20032;-81
2021/12/29 01:27:22;;;;;;;96.00;31.45;;;;;;;8.42;78.42;99008.75;4991777;28;20023;-79
2021/12/29 01:29:47;;;;;;;105.57;30.98;;;;;;;7.37;77.99;98835.03;4991850;28;20076;-81
2021/12/29 01:32:14;;;;;;;97.72;33.40;;;;;;;7.88;78.41;98912.34;4991722;28;20058;-80
2021/12/29 01:34:39;;;;;;;149.93;41.53;;;;;;;7.53;77.98;98853.31;4991712;28;20029;-79
2021/12/29 01:37:04;;;;;;;252.68;62.88;;;;;;;7.58;78.34;98879.88;4974448;28;20034;-81
2021/12/29 01:39:30;;;;;;;273.73;67.78;;;;;;;7.66;78.35;98865.88;4991646;28;20015;-81
2021/12/29 01:41:58;;;;;;;340.65;71.78;;;;;;;8.23;78.60;98979.28;4991645;28;20029;-80
2021/12/29 01:44:27;;;;;;;236.63;72.25;;;;;;;7.97;78.62;98929.69;4974243;28;20508;-80
2021/12/29 01:46:55;;;;;;;294.73;78.93;;;;;;;8.14;78.27;98947.94;4991595;28;20019;-79
2021/12/29 01:49:20;;;;;;;282.33;77.13;;;;;;;7.81;78.21;98895.63;4991459;28;20122;-80
2021/12/29 01:51:59;;;;;;;239.10;73.95;;;;;;;7.66;78.16;98868.50;4994564;28;20117;-81
2021/12/29 01:54:25;;;;;;;267.73;76.07;;;;;;;8.21;78.29;98956.78;4995495;28;20037;-81
2021/12/29 01:56:56;;;;;;;268.98;76.10;;;;;;;8.19;78.37;98953.53;4995279;28;20026;-80
2021/12/29 01:59:23;;;;;;;207.98;61.70;;;;;;;7.84;78.55;98904.97;4995146;28;20419;-81
2021/12/29 02:01:49;;;;;;;145.10;50.92;;;;;;;8.33;78.29;98973.81;4994951;28;20414;-80
2021/12/29 02:04:14;;;;;;;130.52;45.53;;;;;;;7.82;78.24;98912.22;4994848;28;20018;-81
2021/12/29 02:06:40;;;;;;;90.68;36.70;;;;;;;7.45;78.26;98845.50;4995195;28;20022;-80
2021/12/29 02:09:07;;;;;;;88.00;33.90;;;;;;;8.10;78.43;98941.41;4994972;28;20023;-81
2021/12/29 02:11:34;;;;;;;67.25;29.80;;;;;;;8.34;78.46;98990.41;4994993;28;20101;-81
2021/12/29 02:14:01;;;;;;;70.38;31.42;;;;;;;8.03;77.83;98938.66;4994951;28;20022;-80
2021/12/29 02:16:28;;;;;;;45.17;23.70;;;;;;;8.27;78.62;98974.50;4994794;28;20041;-80
2021/12/29 02:18:55;;;;;;;44.90;22.92;;;;;;;8.01;78.55;98931.94;4994826;28;20022;-82
2021/12/29 02:21:21;;;;;;;47.53;23.65;;;;;;;7.82;78.07;98891.19;4994707;28;20022;-80
2021/12/29 02:24:05;;;;;;;74.85;32.05;;;;;;;7.57;78.36;98867.75;4994761;28;20077;-86
2021/12/29 02:26:32;;;;;;;113.85;42.42;;;;;;;8.39;78.30;98983.63;4994750;28;20022;-87
2021/12/29 02:29:00;;;;;;;126.47;44.15;;;;;;;8.27;77.85;98967.44;4994590;28;20022;-86
2021/12/29 02:31:27;;;;;;;109.93;38.95;;;;;;;7.50;78.21;98844.97;4994761;28;20085;-87
2021/12/29 02:33:53;;;;;;;77.80;32.90;;;;;;;8.18;78.15;98962.41;4994615;28;20077;-86
2021/12/29 02:36:20;;;;;;;54.15;26.35;;;;;;;8.35;78.42;98992.88;4994549;28;20027;-87
2021/12/29 02:38:52;;;;;;;49.75;25.75;;;;;;;7.34;77.76;98867.69;4977028;28;20020;-87
2021/12/29 02:41:19;;;;;;;49.55;24.50;;;;;;;8.28;77.88;98984.03;4994565;28;20101;-87
2021/12/29 02:43:45;;;;;;;48.45;24.70;;;;;;;7.34;78.25;98838.00;4994406;28;20026;-86
2021/12/29 02:46:14;;;;;;;51.80;27.88;;;;;;;8.31;78.39;98994.19;4994397;28;20502;-86
2021/12/29 02:48:52;;;;;;;62.55;27.52;;;;;;;8.30;78.23;98987.28;4994140;28;20022;-86
2021/12/29 02:51:17;;;;;;;76.85;33.42;;;;;;;8.27;78.19;99006.88;4992925;28;20530;-87
2021/12/29 02:53:43;;;;;;;85.90;35.05;;;;;;;8.19;77.87;98983.28;4994249;28;20030;-86
2021/12/29 02:56:08;;;;;;;82.25;32.50;;;;;;;7.27;78.03;98872.00;4994217;28;20026;-87
2021/12/29 02:58:34;;;;;;;101.68;33.28;;;;;;;8.31;77.90;98990.75;4994298;28;20018;-86
2021/12/29 03:01:04;;;;;;;83.03;31.13;;;;;;;7.94;77.72;98927.41;4993922;28;20380;-87
2021/12/29 03:03:30;;;;;;;88.32;31.48;;;;;;;7.10;78.31;98804.84;4993109;28;20058;-87
2021/12/29 03:05:56;;;;;;;91.38;25.88;;;;;;;8.29;77.92;98978.59;4976495;28;20026;-87
2021/12/29 03:08:23;;;;;;;63.95;25.83;;;;;;;8.25;78.01;98981.75;4993897;28;20038;-86
2021/12/29 03:10:52;;;;;;;55.00;23.90;;;;;;;8.23;77.91;98978.47;4993802;28;20033;-87
2021/12/29 03:13:23;;;;;;;70.18;25.52;;;;;;;6.62;78.05;98753.44;4976295;28;20018;-86
2021/12/29 03:15:49;;;;;;;39.90;19.33;;;;;;;8.01;78.12;98942.47;4993828;28;20515;-87
2021/12/29 03:18:15;;;;;;;50.80;22.27;;;;;;;7.70;78.07;98903.13;4993513;28;20022;-87
2021/12/29 03:20:40;;;;;;;41.95;21.30;;;;;;;7.28;77.76;98826.38;4993545;28;20014;-86
2021/12/29 03:23:06;;;;;;;34.72;18.60;;;;;;;8.27;78.13;98996.34;4992361;28;20030;-80
2021/12/29 03:25:31;;;;;;;33.97;18.05;;;;;;;8.26;78.12;98978.94;4993679;28;20019;-80
2021/12/29 03:28:00;;;;;;;34.40;17.23;;;;;;;8.27;77.74;98977.94;4993650;28;20045;-80
2021/12/29 03:30:37;;;;;;;26.10;17.10;;;;;;;8.18;77.74;98971.13;4976010;28;20109;-80
2021/12/29 03:33:04;;;;;;;33.30;19.35;;;;;;;8.26;78.23;98980.75;4993628;28;20034;-80
2021/12/29 03:35:34;;;;;;;25.55;15.93;;;;;;;7.77;77.46;98928.50;4993345;28;20026;-80
2021/12/29 03:38:01;;;;;;;26.17;16.95;;;;;;;8.24;78.20;98985.38;4993180;28;20023;-81
2021/12/29 03:40:27;;;;;;;24.55;15.52;;;;;;;8.24;77.84;98983.56;4993275;28;20483;-81
2021/12/29 03:42:53;;;;;;;29.00;17.20;;;;;;;8.13;77.94;98962.91;4993247;28;20028;-80
2021/12/29 03:45:19;;;;;;;26.52;15.88;;;;;;;7.91;77.55;98919.06;4993021;28;20033;-81
2021/12/29 03:47:44;;;;;;;23.15;15.68;;;;;;;7.79;77.98;98928.34;4992857;28;20027;-80
2021/12/29 03:50:10;;;;;;;30.27;16.35;;;;;;;7.69;77.60;98890.97;4992904;28;20030;-80
2021/12/29 03:52:36;;;;;;;23.50;15.70;;;;;;;8.11;77.60;98959.63;4992901;28;20109;-81
2021/12/29 03:55:01;;;;;;;29.83;18.42;;;;;;;8.06;78.04;98956.72;4992776;28;20087;-80
2021/12/29 03:57:26;;;;;;;27.88;16.50;;;;;;;8.18;77.69;98980.81;4992998;28;20033;-81
2021/12/29 03:59:52;;;;;;;25.48;16.30;;;;;;;7.90;78.10;98941.06;4992922;28;20523;-80
2021/12/29 04:02:17;;;;;;;28.33;15.57;;;;;;;7.83;77.65;98927.81;4992993;28;20069;-80
2021/12/29 04:04:43;;;;;;;30.08;16.23;;;;;;;7.98;77.77;98959.41;4992805;28;20034;-80
2021/12/29 04:07:08;;;;;;;29.83;17.90;;;;;;;7.95;77.98;98949.25;4992712;28;20030;-81
2021/12/29 04:09:34;;;;;;;25.77;14.18;;;;;;;7.33;78.14;98865.25;4992458;28;20053;-81
2021/12/29 04:11:59;;;;;;;29.50;14.18;;;;;;;7.79;78.12;98930.97;4992753;28;20080;-80
2021/12/29 04:14:26;;;;;;;22.50;13.52;;;;;;;8.06;77.99;99006.66;4992845;28;20101;-81
2021/12/29 04:16:53;;;;;;;23.83;14.85;;;;;;;7.10;77.74;98848.66;4992620;28;20025;-81
2021/12/29 04:19:29;;;;;;;25.45;15.70;;;;;;;7.78;77.84;98929.34;4992407;28;20120;-80
2021/12/29 04:21:56;;;;;;;24.95;14.15;;;;;;;7.68;77.97;98910.34;4992524;28;20046;-79
2021/12/29 04:24:22;;;;;;;22.70;13.35;;;;;;;7.74;77.99;98922.78;4992785;28;20101;-82
2021/12/29 04:26:48;;;;;;;25.13;16.10;;;;;;;8.08;77.92;98980.22;4992801;28;20105;-79
2021/12/29 04:29:13;;;;;;;23.40;14.40;;;;;;;8.07;78.20;98982.00;4992345;28;20411;-82
2021/12/29 04:31:40;;;;;;;29.83;15.80;;;;;;;7.87;77.73;98967.69;4992446;28;20026;-80
2021/12/29 04:34:06;;;;;;;23.83;15.80;;;;;;;8.11;78.11;98985.13;4992342;28;20483;-80
2021/12/29 04:36:32;;;;;;;23.67;15.93;;;;;;;8.03;78.02;98964.13;4992243;28;20026;-80
2021/12/29 04:38:58;;;;;;;21.65;15.55;;;;;;;7.21;77.63;98830.69;4992248;28;20019;-80
2021/12/29 04:41:25;;;;;;;22.48;13.60;;;;;;;7.96;77.37;98951.69;4992287;28;20041;-82
2021/12/29 04:43:50;;;;;;;24.90;15.07;;;;;;;7.15;77.64;98834.00;4991908;28;20065;-81
2021/12/29 04:46:18;;;;;;;19.58;14.77;;;;;;;7.61;77.52;98915.50;4992125;28;20046;-82
2021/12/29 04:48:52;;;;;;;20.58;14.02;;;;;;;8.13;77.72;98983.13;4990793;28;20026;-82
2021/12/29 04:51:24;;;;;;;20.80;14.52;;;;;;;7.94;77.71;98942.34;4992492;28;20022;-80
2021/12/29 04:53:51;;;;;;;16.70;12.65;;;;;;;8.00;77.67;98951.34;4992320;28;20030;-81
2021/12/29 04:56:17;;;;;;;20.65;14.45;;;;;;;7.25;77.06;98836.41;4992210;28;20033;-81
2021/12/29 04:58:43;;;;;;;22.80;13.95;;;;;;;8.06;77.58;98964.59;4991997;28;20411;-80
2021/12/29 05:01:09;;;;;;;17.13;11.85;;;;;;;8.03;77.50;98961.50;4991788;28;20024;-80
2021/12/29 05:03:38;;;;;;;19.83;12.43;;;;;;;8.01;77.46;98950.34;4991730;28;20105;-80
2021/12/29 05:08:32;;;;;;;17.35;11.40;;;;;;;7.32;77.26;98856.56;4991997;28;20093;-82
2021/12/29 05:11:07;;;;;;;19.20;12.02;;;;;;;7.77;76.87;98920.63;4991877;28;20030;-80
2021/12/29 05:13:36;;;;;;;28.00;14.38;;;;;;;7.93;76.94;98953.88;4991737;28;20180;-80
2021/12/29 05:16:02;;;;;;;24.45;14.15;;;;;;;7.64;77.33;98897.56;4992036;28;20085;-79
2021/12/29 05:18:30;;;;;;;22.65;12.68;;;;;;;7.66;77.10;98894.78;4991841;28;20019;-79
2021/12/29 05:20:56;;;;;;;23.52;13.07;;;;;;;7.41;77.11;98840.75;4991599;28;20524;-79
2021/12/29 05:23:23;;;;;;;27.27;14.45;;;;;;;7.68;77.27;98879.66;4991603;28;20042;-86
2021/12/29 05:25:49;;;;;;;31.33;15.75;;;;;;;7.51;77.31;98870.25;4993257;28;20072;-86
2021/12/29 05:28:17;;;;;;;38.72;19.10;;;;;;;7.52;77.16;98885.00;4995643;28;20022;-87
2021/12/29 05:30:44;;;;;;;48.63;19.35;;;;;;;7.38;76.91;98836.66;4995733;28;19952;-87
2021/12/29 05:33:09;;;;;;;39.78;17.77;;;;;;;7.16;76.85;98805.97;4995718;28;20599;-87
2021/12/29 05:35:35;;;;;;;42.05;19.65;;;;;;;8.02;77.04;98938.84;4995682;28;20023;-87
2021/12/29 05:38:01;;;;;;;39.25;19.25;;;;;;;7.37;76.84;98837.66;4995586;28;20101;-87
2021/12/29 05:40:27;;;;;;;32.60;15.40;;;;;;;7.30;76.96;98839.34;4995529;28;20574;-86
2021/12/29 05:42:54;;;;;;;27.73;12.57;;;;;;;7.99;76.78;98934.75;4995301;28;20057;-87
2021/12/29 05:45:19;;;;;;;27.98;13.20;;;;;;;7.33;76.46;98842.44;4995440;28;20022;-87
2021/12/29 05:47:46;;;;;;;31.08;14.68;;;;;;;8.00;76.90;98954.78;4995263;28;20037;-86
2021/12/29 05:50:15;;;;;;;29.20;14.88;;;;;;;7.75;76.67;98898.97;4995185;28;20026;-86
2021/12/29 05:52:40;;;;;;;31.63;16.00;;;;;;;7.29;76.98;98819.31;4995296;28;20034;-86
2021/12/29 05:55:06;;;;;;;36.88;17.30;;;;;;;7.62;76.36;98883.78;4995324;28;20029;-86
2021/12/29 05:57:32;;;;;;;37.42;16.73;;;;;;;7.33;76.38;98828.47;4995402;28;20399;-87
2021/12/29 05:59:58;;;;;;;44.50;18.88;;;;;;;7.07;76.71;98805.19;4995026;28;20022;-87
2021/12/29 06:02:24;;;;;;;54.10;22.13;;;;;;;7.32;76.27;98821.59;4995313;28;20045;-86
2021/12/29 06:04:49;;;;;;;74.53;25.30;;;;;;;7.70;76.61;98889.97;4995252;28;20062;-87
2021/12/29 06:07:15;;;;;;;55.03;22.88;;;;;;;6.78;76.77;98735.00;4995006;28;20026;-87
2021/12/29 06:09:41;;;;;;;51.33;20.90;;;;;;;7.26;76.70;98811.78;4994816;28;20031;-86
2021/12/29 06:12:07;;;;;;;50.38;20.33;;;;;;;8.06;76.74;98930.44;4994967;28;20391;-86
2021/12/29 06:14:33;;;;;;;44.90;18.50;;;;;;;7.22;76.50;98789.50;4994776;28;20458;-86
2021/12/29 06:16:59;;;;;;;59.28;22.60;;;;;;;7.18;76.52;98788.22;4993582;28;20023;-85
2021/12/29 06:19:24;;;;;;;58.22;21.88;;;;;;;7.43;76.54;98831.72;4994960;28;20023;-86
2021/12/29 06:21:49;;;;;;;60.45;22.02;;;;;;;6.99;76.21;98785.06;4994795;28;20089;-86
2021/12/29 06:24:15;;;;;;;63.95;22.50;;;;;;;7.76;76.63;98897.97;4994666;28;20041;-80
2021/12/29 06:26:41;;;;;;;56.10;21.10;;;;;;;7.74;76.05;98893.88;4994565;28;20415;-79
2021/12/29 06:29:06;;;;;;;68.45;23.98;;;;;;;7.86;76.50;98916.94;4994466;28;20109;-80
2021/12/29 06:31:33;;;;;;;90.70;28.10;;;;;;;7.71;76.59;98900.31;4994461;28;20022;-81
2021/12/29 06:33:59;;;;;;;88.65;28.90;;;;;;;7.41;76.23;98848.63;4994417;28;20491;-80
2021/12/29 06:36:25;;;;;;;80.97;28.90;;;;;;;7.31;76.11;98840.97;4993911;28;20022;-81
2021/12/29 06:38:50;;;;;;;92.57;29.88;;;;;;;7.47;76.34;98851.41;5001275;28;20683;-79
2021/12/29 06:41:16;;;;;;;99.97;31.55;;;;;;;8.06;76.30;98950.66;5013808;28;20022;-81
2021/12/29 06:43:41;;;;;;;96.47;30.35;;;;;;;7.16;76.06;98817.28;5011490;28;20025;-80
2021/12/29 06:46:07;;;;;;;63.95;25.15;;;;;;;7.44;76.38;98871.94;5013607;28;20026;-80
2021/12/29 06:48:32;;;;;;;88.40;29.17;;;;;;;7.97;76.34;98974.38;4992699;28;20463;-81
2021/12/29 06:50:58;;;;;;;91.70;28.27;;;;;;;6.97;76.63;98787.03;5013863;28;20025;-81
2021/12/29 06:53:23;;;;;;;91.32;30.08;;;;;;;6.75;76.30;98745.84;5011537;28;20104;-80
2021/12/29 06:55:49;;;;;;;61.83;24.80;;;;;;;8.02;77.03;98968.59;5013345;28;20032;-80
2021/12/29 06:58:14;;;;;;;64.05;25.00;;;;;;;7.13;76.27;98801.06;5011906;28;20018;-79
2021/12/29 07:00:40;;;;;;;51.67;20.77;;;;;;;8.02;76.24;98950.19;5007561;28;20049;-81
2021/12/29 07:03:06;;;;;;;66.00;26.20;;;;;;;8.05;76.29;98941.13;5010967;28;20093;-80
2021/12/29 07:05:31;;;;;;;50.42;20.42;;;;;;;8.03;76.18;98949.19;5012862;28;20033;-81
2021/12/29 07:07:57;;;;;;;61.60;21.95;;;;;;;7.99;75.76;98947.91;5011402;28;20084;-81
2021/12/29 07:10:22;;;;;;;45.38;20.77;;;;;;;7.82;76.26;98920.94;5008738;28;20034;-81
2021/12/29 07:12:48;;;;;;;60.20;22.23;;;;;;;7.90;76.72;98933.19;5003791;28;22196;-81
2021/12/29 07:15:14;;;;;;;51.20;19.90;;;;;;;7.64;75.88;98894.94;5014166;28;20068;-82
2021/12/29 07:17:40;;;;;;;40.65;18.02;;;;;;;7.94;76.44;98952.88;5008795;28;20411;-79
2021/12/29 07:20:06;;;;;;;46.42;19.30;;;;;;;7.94;76.52;98951.06;5012677;28;20022;-79
2021/12/29 07:22:31;;;;;;;43.60;19.38;;;;;;;6.76;75.98;98751.91;5007929;28;20018;-80
2021/12/29 07:24:57;;;;;;;53.10;18.42;;;;;;;7.89;75.79;98939.44;5011839;28;20483;-81
2021/12/29 07:27:22;;;;;;;66.18;22.23;;;;;;;7.93;75.79;98959.94;5007133;28;20461;-79
2021/12/29 07:29:48;;;;;;;88.85;26.55;;;;;;;7.40;75.89;98875.88;5002814;28;20022;-84
2021/12/29 07:32:13;;;;;;;102.63;28.08;;;;;;;7.91;76.07;98977.69;5011389;28;20109;-79
2021/12/29 07:34:39;;;;;;;88.85;26.80;;;;;;;7.74;76.19;98936.75;5007631;28;20037;-81
2021/12/29 07:37:04;;;;;;;88.70;28.08;;;;;;;7.53;76.20;98902.41;5017115;28;20017;-84
2021/12/29 07:39:30;;;;;;;87.72;27.23;;;;;;;7.33;75.98;98878.38;5014315;28;20432;-82
2021/12/29 07:41:55;;;;;;;85.13;26.15;;;;;;;7.84;76.22;98970.69;5005991;28;20463;-82
2021/12/29 07:44:23;;;;;;;81.60;25.58;;;;;;;7.95;75.62;98960.59;5013705;28;20502;-83
2021/12/29 07:46:53;;;;;;;89.40;28.90;;;;;;;7.94;76.16;98952.88;5010913;28;20581;-83
2021/12/29 07:49:18;;;;;;;91.75;30.10;;;;;;;7.79;76.08;98949.38;5009166;28;20030;-83
2021/12/29 07:51:44;;;;;;;114.88;32.08;;;;;;;7.69;76.34;98927.75;5008265;28;20140;-82
2021/12/29 07:54:10;;;;;;;133.48;35.83;;;;;;;7.91;76.12;98963.72;5010361;28;20056;-83
2021/12/29 07:56:36;;;;;;;111.25;31.63;;;;;;;7.62;76.16;98923.19;5007683;28;20022;-84
2021/12/29 07:59:02;;;;;;;108.78;32.78;;;;;;;7.15;76.47;98854.19;4993531;28;20376;-81
2021/12/29 08:01:27;;;;;;;106.50;29.90;;;;;;;7.87;76.12;98996.63;5009098;28;20029;-84
2021/12/29 08:03:53;;;;;;;95.70;31.02;;;;;;;7.87;76.05;98971.16;5009540;28;20026;-81
2021/12/29 08:06:19;;;;;;;100.90;31.40;;;;;;;7.80;76.31;98953.63;5010331;28;20021;-83
2021/12/29 08:08:45;;;;;;;111.53;34.35;;;;;;;7.36;76.41;98890.34;5010413;28;20030;-86
2021/12/29 08:11:10;;;;;;;110.45;31.05;;;;;;;7.30;76.54;98897.91;5009637;28;20483;-86
2021/12/29 08:13:36;;;;;;;107.43;28.65;;;;;;;7.35;76.18;98868.50;5007053;28;20033;-86
2021/12/29 08:16:02;;;;;;;89.97;28.20;;;;;;;7.77;76.63;98935.59;5009242;28;20057;-86
2021/12/29 08:18:27;;;;;;;107.47;31.73;;;;;;;7.58;76.14;98895.66;5009875;28;20033;-85
2021/12/29 08:20:53;;;;;;;127.43;40.65;;;;;;;7.79;76.54;98920.47;5005468;28;20050;-85
2021/12/29 08:23:18;;;;;;;132.13;38.53;;;;;;;6.89;76.03;98787.09;5004419;28;21015;-86
2021/12/29 08:25:44;;;;;;;120.32;39.58;;;;;;;6.89;75.77;98781.84;4989002;28;20030;-86
2021/12/29 08:28:10;;;;;;;152.18;43.50;;;;;;;6.56;75.98;98730.53;5011548;28;20026;-84
2021/12/29 08:30:35;;;;;;;170.43;48.47;;;;;;;7.33;76.05;98855.56;5001959;28;20056;-85
2021/12/29 08:33:01;;;;;;;182.65;50.08;;;;;;;7.28;76.30;98841.31;5006425;28;20029;-86
2021/12/29 08:35:27;;;;;;;165.38;48.97;;;;;;;7.95;76.01;98957.13;4990217;28;20460;-84
2021/12/29 08:37:53;;;;;;;194.80;53.75;;;;;;;7.94;76.33;98968.63;5003948;28;20084;-87
2021/12/29 08:40:18;;;;;;;181.65;47.30;;;;;;;7.25;76.46;98873.19;5008052;28;20045;-86
2021/12/29 08:42:45;;;;;;;146.75;42.72;;;;;;;6.57;76.61;98743.47;5011285;28;20495;-87
2021/12/29 08:45:13;;;;;;;128.20;36.03;;;;;;;7.71;76.75;98917.88;5005545;28;20106;-88
2021/12/29 08:47:39;;;;;;;127.90;39.33;;;;;;;6.92;76.58;98793.81;5007600;28;20494;-88
2021/12/29 08:50:07;;;;;;;118.15;37.85;;;;;;;7.54;76.85;98883.03;4995524;28;20034;-87
2021/12/29 08:52:33;;;;;;;117.20;41.10;;;;;;;7.38;76.71;98852.41;4978600;28;20029;-85
2021/12/29 08:54:59;;;;;;;101.50;37.08;;;;;;;7.63;76.79;98897.75;5006729;28;20854;-84
2021/12/29 08:57:24;;;;;;;101.80;35.38;;;;;;;7.53;76.77;98879.59;5008887;28;20025;-83
2021/12/29 08:59:50;;;;;;;79.07;30.92;;;;;;;7.37;76.46;98849.97;5003553;28;20022;-85
2021/12/29 09:02:15;;;;;;;67.47;25.05;;;;;;;7.22;75.92;98816.56;5007658;28;20491;-82
2021/12/29 09:04:41;;;;;;;63.97;26.05;;;;;;;7.60;76.52;98892.84;5003507;28;20033;-84
2021/12/29 09:07:06;;;;;;;70.72;26.40;;;;;;;7.99;76.16;98955.78;5003840;28;20487;-80
2021/12/29 09:09:32;;;;;;;67.03;23.73;;;;;;;7.90;76.45;98951.59;5008220;28;20068;-82
2021/12/29 09:11:58;;;;;;;61.83;21.63;;;;;;;7.98;76.43;98938.38;5010206;28;20022;-80
2021/12/29 09:14:24;;;;;;;45.15;21.92;;;;;;;8.00;76.37;98962.69;5001996;28;20029;-83
2021/12/29 09:16:49;;;;;;;52.97;24.70;;;;;;;8.00;76.58;98930.31;5004815;28;20022;-82
2021/12/29 09:19:15;;;;;;;43.13;20.50;;;;;;;7.99;76.05;98926.88;4995141;28;20367;-82
2021/12/29 09:21:44;;;;;;;37.35;20.55;;;;;;;8.01;76.45;98918.81;5005576;28;20037;-84
2021/12/29 09:24:10;;;;;;;32.45;16.65;;;;;;;8.02;75.99;98908.13;4986369;28;20388;-86
2021/12/29 09:26:35;;;;;;;32.70;16.42;;;;;;;7.57;75.91;98835.41;5006617;28;20026;-87
2021/12/29 09:29:01;;;;;;;29.58;14.88;;;;;;;7.31;76.04;98798.97;5009231;28;20022;-87
2021/12/29 09:31:27;;;;;;;23.52;13.15;;;;;;;6.91;76.14;98731.81;5011098;28;20025;-87
2021/12/29 09:33:53;;;;;;;22.75;13.10;;;;;;;6.84;76.10;98729.06;4992116;28;20034;-87
2021/12/29 09:36:18;;;;;;;31.75;16.70;;;;;;;7.96;76.35;98896.50;5006736;28;20032;-87
2021/12/29 09:38:44;;;;;;;24.05;14.18;;;;;;;7.95;76.44;98892.25;5009263;28;20018;-88
2021/12/29 09:41:16;;;;;;;15.85;11.65;;;;;;;6.65;75.85;98685.72;5009432;28;20030;-87
2021/12/29 09:43:43;;;;;;;16.08;10.02;;;;;;;7.83;76.33;98888.41;5006243;28;20058;-87
2021/12/29 09:46:09;;;;;;;18.02;11.40;;;;;;;7.15;76.18;98764.94;4987528;28;20417;-87
2021/12/29 09:48:36;;;;;;;17.67;10.68;;;;;;;7.34;76.25;98781.03;5008183;28;20513;-87
2021/12/29 09:51:05;;;;;;;17.00;12.13;;;;;;;7.43;76.30;98791.47;5009199;28;20096;-88
2021/12/29 09:53:31;;;;;;;18.50;12.55;;;;;;;7.92;76.32;98883.88;4991359;28;20045;-87
2021/12/29 09:55:57;;;;;;;13.93;10.93;;;;;;;7.42;76.46;98805.59;5010285;28;20421;-86
2021/12/29 09:58:22;;;;;;;16.15;12.23;;;;;;;7.87;76.01;98875.72;4990337;28;20033;-87
2021/12/29 10:00:51;;;;;;;12.65;9.75;;;;;;;7.87;76.45;98875.72;5008839;28;20097;-87
2021/12/29 10:03:19;;;;;;;15.13;11.65;;;;;;;7.22;76.18;98756.19;4988713;28;20053;-87
2021/12/29 10:05:47;;;;;;;13.75;11.48;;;;;;;7.49;76.09;98796.06;5009919;28;20048;-88
2021/12/29 10:08:17;;;;;;;18.35;11.02;;;;;;;7.90;76.10;98849.91;5010392;28;20494;-88
2021/12/29 10:10:48;;;;;;;13.18;10.18;;;;;;;7.12;76.02;98737.25;5003167;28;20113;-86
2021/12/29 10:13:15;;;;;;;13.30;11.38;;;;;;;7.90;76.54;98843.81;4990819;28;20038;-87
2021/12/29 10:15:45;;;;;;;13.93;12.20;;;;;;;7.71;76.43;98813.59;5007113;28;20049;-88
2021/12/29 10:18:20;;;;;;;12.73;11.00;;;;;;;7.58;76.52;98785.31;4994301;28;20029;-87
2021/12/29 10:21:00;;;;;;;12.07;10.65;;;;;;;7.54;76.84;98780.59;4995026;28;20068;-88
2021/12/29 10:23:28;;;;;;;11.57;9.88;;;;;;;7.94;76.33;98835.41;5016259;28;20510;-88
2021/12/29 10:25:56;;;;;;;18.02;13.50;;;;;;;7.28;76.18;98716.09;5011712;28;20525;-88
2021/12/29 10:28:28;;;;;;;21.52;16.20;;;;;;;8.00;75.96;98827.81;5009934;28;20034;-88
2021/12/29 10:31:16;;;;;;;16.90;13.63;;;;;;;8.01;76.54;98824.19;4994474;28;20041;-89
2021/12/29 10:33:51;;;;;;;13.57;10.80;;;;;;;7.45;76.38;98747.50;5010576;28;20053;-88
2021/12/29 10:36:27;;;;;;;43.88;21.65;;;;;;;7.65;76.15;98767.03;4988310;28;20180;-88
2021/12/29 10:39:18;;;;;;;14.45;11.35;;;;;;;8.00;76.59;98806.78;4983995;28;20067;-88
2021/12/29 10:42:06;;;;;;;11.80;10.10;;;;;;;7.64;76.47;98754.88;5004866;28;20076;-89
2021/12/29 10:44:38;;;;;;;11.85;8.85;;;;;;;7.72;76.44;98786.34;5012879;28;20041;-88
2021/12/29 10:47:22;;;;;;;11.07;8.50;;;;;;;7.93;76.47;98817.19;4997573;28;20112;-89
2021/12/29 10:49:56;;;;;;;12.43;9.63;;;;;;;7.32;76.32;98727.06;5006737;28;20041;-89
2021/12/29 10:52:48;;;;;;;12.65;9.75;;;;;;;7.96;76.65;98816.81;5013032;28;20503;-88
2021/12/29 10:55:35;;;;;;;15.07;10.93;;;;;;;7.38;76.77;98720.28;4992221;28;20044;-89
2021/12/29 10:58:14;;;;;;;16.13;12.93;;;;;;;8.01;76.81;98811.03;5004124;28;20534;-89
2021/12/29 11:00:43;;;;;;;22.08;17.77;;;;;;;7.42;76.61;98711.06;5008322;28;20026;-88
2021/12/29 11:03:09;;;;;;;17.45;14.10;;;;;;;8.04;77.01;98800.97;4993840;28;20033;-89
2021/12/29 11:05:37;;;;;;;13.23;11.85;;;;;;;8.05;76.43;98796.53;4989495;28;20033;-89
2021/12/29 11:08:11;;;;;;;17.50;14.80;;;;;;;7.65;76.29;98738.94;5011073;28;20044;-89
2021/12/29 11:10:37;;;;;;;16.23;12.90;;;;;;;7.88;76.36;98782.72;4992871;28;20026;-86
2021/12/29 11:13:03;;;;;;;14.25;11.88;;;;;;;7.68;76.93;98743.03;4988739;28;20087;-89
2021/12/29 11:15:36;;;;;;;10.25;8.40;;;;;;;6.69;77.06;98586.53;5001502;28;20192;-88
2021/12/29 11:18:06;;;;;;;15.85;11.43;;;;;;;7.92;76.73;98781.38;5005392;28;20079;-88
2021/12/29 11:20:33;;;;;;;13.13;10.98;;;;;;;7.33;76.72;98678.81;5009938;28;20022;-87
2021/12/29 11:23:09;;;;;;;12.15;10.27;;;;;;;8.11;76.89;98782.66;5011422;28;20025;-89
2021/12/29 11:25:36;;;;;;;14.88;13.07;;;;;;;8.13;76.53;98784.13;4992793;28;20037;-87
2021/12/29 11:28:02;;;;;;;18.75;15.52;;;;;;;7.68;76.31;98708.06;4992916;28;20025;-89